Sterling, ND

7:49 PM CDT on October 24, 2014 (GMT -0500)
Bismarck Municipal | Change Station
CLOSE
Current Station
Airport
Location: Bismarck,
Elevation: 1660 ft
Nearby Weather Stations

Elev 1660 ft 46.78 °N, 100.76 °W | Updated 57 minutes ago

Partly Cloudy
Partly Cloudy
62 °F
Feels Like 62 °F
N
10
Wind Variable Wind from West

Today
High -- | Low -- °F
--% Chance of Precip.
Yesterday
High -- | Low -- °F
Precip. -- in
8:11 AM 6:37 PM
New Moon, 1% visible
Pressure 29.99 in
Visibility 10.0 miles
Clouds Mostly Cloudy 11000 ft
Dew Point 35 °F
Humidity 37%
Rainfall 0.00 in
Snow Depth Not available.
UV 0 out of 12
Pollen 1.70 out of 12
Air Quality Not available.
Flu Activity Sporadic
METAR KBIS 242352Z 28009KT 10SM BKN110 17/02 A2997 RMK AO2 SLP155 T01670017 10228 20167 51019

More Conditions Fewer Conditions

Pressure 29.99 in
Visibility 10.0 miles
Clouds Mostly Cloudy 11000 ft
Dew Point 35 °F
Humidity 37%
Rainfall 0.00 in
Snow Depth Not available.
UV 0 out of 12
Pollen 1.70 out of 12
Air Quality Not available.
Flu Activity Sporadic
METAR KBIS 242352Z 28009KT 10SM BKN110 17/02 A2997 RMK AO2 SLP155 T01670017 10228 20167 51019

More Conditions Fewer Conditions

10-Day Weather Forecast

Almanac

Astronomy

Oct. 24, 2014 Rise Set
Actual Time 8:11 AM CDT 6:37 PM CDT
Civil Twilight 7:40 AM CDT 7:09 PM CDT
Nautical Twilight 7:05 AM CDT 7:44 PM CDT
Astronomical Twilight 6:30 AM CDT 8:19 PM CDT
Moon 8:54 AM CDT (10/24) 7:15 PM CDT (10/24)
Length of Visible Light 11h 28m
Length of Day
10h 26m
Tomorrow will be 3m 7s shorter.
New Moon, 1% of the Moon is Illuminated
Today
New Moon
Oct 30
First Quarter
Nov 6
Full
Nov 14
Last Quarter
Nov 22
New

Today's Extremes

State Highs State Lows

Community

WunderPhotos

Upload Photos

1,764,735 photos uploaded!

WunderBlogs® & News

Nearby

Snow Depth

Station Depth Elevation
No new snow has been reported.

Earthquake Activity

City Distance Mag. Time & Date
No recent earthquake activity has been reported nearby.
Minimum magnitude displayed is 2.5.

Coastal Water Temperatures

Place Temperature
No Stations Reporting

Nearby Weather Stations